Portada
METAR-TAF:

METAR-TAF

Aeropuertos :

Aeropuerto de Ängelholm-Helsingborg

Helsingborg, Suecia

latitud: 56-17-46N, longitud: 012-50-50E, altitud: 21 m

Observación

El informe se hizo hace 22 minutos, a las 17:50 UTC
Viento 8 kt del sur-sureste
Temperatura 9°C
Humedad 81%
Presión 1002 hPa
Visibilidad 10 km o más
Nubes dispersas a una altura de 5500 ft

METAR: ESTA 271750Z 16008KT 9999 SCT055 09/06 Q1002

Hora: 19:12 (18:12 UTC)

Pronóstico

El informe se hizo hace 1 hora y 9 minutos, a las 17:03 UTC
Pronóstico válido del 27 a las 18 UTC al 27 a las 20 UTC
Viento 10 kt del sur
Visibilidad 10 km o más
Nubes dispersas a una altura de 2000 ft
Temporalmente
del 27 a las 18 UTC al 27 a las 20 UTC
Nubes dispersas a una altura de 2000 ft, Cumulonimbus.

TAF: ESTA 271703Z 2718/2720 18010KT 9999 SCT020 TEMPO 2718/2720 SCT020CB

Observaciones y pronósticos meteorológicos de más de 4000 aeropuertos (mensajes METAR y TAF).

Los puntos amarillos y rojos representan las estaciones disponibles.

Ponga el ratón en el punto deseado para ver el nombre de la estación.

Haga clic para ver las observaciones y los pronósticos meteorológicos.

Para cambiar el mapa : haga clic en los botones verdes con una cruz de color negro para hacer un zoom, en el botón verde con un guión para alejar o en las flechas verdes para mapas adyacentes.


METAR-TAF: